sensor_id;sensor_type;location;lat;lon;timestamp;P1;durP1;ratioP1;P2;durP2;ratioP2
11171;SDS011;5642;50.830;12.082;2022-11-15T00:00:47;4.60;;;4.20;;
11171;SDS011;5642;50.830;12.082;2022-11-15T00:03:14;4.55;;;4.15;;
11171;SDS011;5642;50.830;12.082;2022-11-15T00:05:45;5.03;;;4.38;;
11171;SDS011;5642;50.830;12.082;2022-11-15T00:08:12;4.85;;;3.95;;
11171;SDS011;5642;50.830;12.082;2022-11-15T00:10:38;5.78;;;4.68;;
11171;SDS011;5642;50.830;12.082;2022-11-15T00:13:14;5.32;;;4.68;;
11171;SDS011;5642;50.830;12.082;2022-11-15T00:15:40;4.75;;;4.25;;
11171;SDS011;5642;50.830;12.082;2022-11-15T00:18:11;4.32;;;3.90;;
11171;SDS011;5642;50.830;12.082;2022-11-15T00:20:39;6.05;;;4.95;;
11171;SDS011;5642;50.830;12.082;2022-11-15T00:23:05;5.05;;;4.55;;
11171;SDS011;5642;50.830;12.082;2022-11-15T00:25:33;4.90;;;4.43;;
11171;SDS011;5642;50.830;12.082;2022-11-15T00:27:59;4.93;;;4.32;;
11171;SDS011;5642;50.830;12.082;2022-11-15T00:30:26;5.20;;;4.45;;
11171;SDS011;5642;50.830;12.082;2022-11-15T00:32:53;5.00;;;4.18;;
11171;SDS011;5642;50.830;12.082;2022-11-15T00:35:20;4.72;;;4.25;;
11171;SDS011;5642;50.830;12.082;2022-11-15T00:37:46;4.80;;;4.15;;
11171;SDS011;5642;50.830;12.082;2022-11-15T00:40:14;4.80;;;4.22;;
11171;SDS011;5642;50.830;12.082;2022-11-15T00:42:41;5.03;;;4.53;;
11171;SDS011;5642;50.830;12.082;2022-11-15T00:45:08;4.60;;;4.15;;
11171;SDS011;5642;50.830;12.082;2022-11-15T00:47:36;4.80;;;4.30;;
11171;SDS011;5642;50.830;12.082;2022-11-15T00:50:02;4.55;;;4.15;;
11171;SDS011;5642;50.830;12.082;2022-11-15T00:52:30;4.57;;;3.95;;
11171;SDS011;5642;50.830;12.082;2022-11-15T00:54:56;4.15;;;3.75;;
11171;SDS011;5642;50.830;12.082;2022-11-15T00:57:21;5.53;;;4.30;;
11171;SDS011;5642;50.830;12.082;2022-11-15T00:59:48;4.63;;;3.97;;
11171;SDS011;5642;50.830;12.082;2022-11-15T01:02:14;4.78;;;4.20;;
11171;SDS011;5642;50.830;12.082;2022-11-15T01:04:40;4.60;;;4.07;;
11171;SDS011;5642;50.830;12.082;2022-11-15T01:07:07;4.97;;;4.47;;
11171;SDS011;5642;50.830;12.082;2022-11-15T01:09:33;4.82;;;4.30;;
11171;SDS011;5642;50.830;12.082;2022-11-15T01:11:59;5.28;;;4.40;;
11171;SDS011;5642;50.830;12.082;2022-11-15T01:14:25;4.53;;;3.80;;
11171;SDS011;5642;50.830;12.082;2022-11-15T01:16:51;4.28;;;3.78;;
11171;SDS011;5642;50.830;12.082;2022-11-15T01:19:17;4.50;;;4.03;;
11171;SDS011;5642;50.830;12.082;2022-11-15T01:21:44;4.28;;;3.88;;
11171;SDS011;5642;50.830;12.082;2022-11-15T01:24:11;4.55;;;3.97;;
11171;SDS011;5642;50.830;12.082;2022-11-15T01:26:38;3.90;;;3.50;;
11171;SDS011;5642;50.830;12.082;2022-11-15T01:29:05;4.50;;;3.95;;
11171;SDS011;5642;50.830;12.082;2022-11-15T01:31:31;5.55;;;4.20;;
11171;SDS011;5642;50.830;12.082;2022-11-15T01:33:57;4.50;;;3.83;;
11171;SDS011;5642;50.830;12.082;2022-11-15T01:36:23;6.22;;;4.32;;
11171;SDS011;5642;50.830;12.082;2022-11-15T01:38:53;4.30;;;3.90;;
11171;SDS011;5642;50.830;12.082;2022-11-15T01:41:22;4.28;;;3.88;;
11171;SDS011;5642;50.830;12.082;2022-11-15T01:43:55;4.07;;;3.67;;
11171;SDS011;5642;50.830;12.082;2022-11-15T01:48:53;4.28;;;3.88;;
11171;SDS011;5642;50.830;12.082;2022-11-15T01:51:21;4.78;;;3.95;;
11171;SDS011;5642;50.830;12.082;2022-11-15T01:53:51;4.68;;;3.92;;
11171;SDS011;5642;50.830;12.082;2022-11-15T01:56:25;4.40;;;4.00;;
11171;SDS011;5642;50.830;12.082;2022-11-15T01:58:57;5.03;;;3.95;;
11171;SDS011;5642;50.830;12.082;2022-11-15T02:01:26;4.82;;;4.10;;
11171;SDS011;5642;50.830;12.082;2022-11-15T02:03:56;4.18;;;3.78;;
11171;SDS011;5642;50.830;12.082;2022-11-15T02:06:25;4.18;;;3.78;;
11171;SDS011;5642;50.830;12.082;2022-11-15T02:08:51;4.18;;;3.78;;
11171;SDS011;5642;50.830;12.082;2022-11-15T02:11:17;4.07;;;3.67;;
11171;SDS011;5642;50.830;12.082;2022-11-15T02:13:45;4.28;;;3.90;;
11171;SDS011;5642;50.830;12.082;2022-11-15T02:16:35;4.15;;;3.75;;
11171;SDS011;5642;50.830;12.082;2022-11-15T02:30:35;4.18;;;3.78;;
11171;SDS011;5642;50.830;12.082;2022-11-15T02:33:13;4.32;;;3.60;;
11171;SDS011;5642;50.830;12.082;2022-11-15T02:41:20;3.90;;;3.50;;
11171;SDS011;5642;50.830;12.082;2022-11-15T02:44:14;3.92;;;3.53;;
11171;SDS011;5642;50.830;12.082;2022-11-15T02:47:05;4.00;;;3.40;;
11171;SDS011;5642;50.830;12.082;2022-11-15T02:49:45;4.47;;;4.00;;
11171;SDS011;5642;50.830;12.082;2022-11-15T02:52:26;3.83;;;3.45;;
11171;SDS011;5642;50.830;12.082;2022-11-15T02:54:56;4.43;;;3.78;;
11171;SDS011;5642;50.830;12.082;2022-11-15T03:00:15;4.03;;;3.63;;
11171;SDS011;5642;50.830;12.082;2022-11-15T03:08:10;4.03;;;3.63;;
11171;SDS011;5642;50.830;12.082;2022-11-15T03:13:27;3.63;;;3.25;;
11171;SDS011;5642;50.830;12.082;2022-11-15T03:16:08;3.55;;;3.25;;
11171;SDS011;5642;50.830;12.082;2022-11-15T03:18:45;4.32;;;3.70;;
11171;SDS011;5642;50.830;12.082;2022-11-15T03:21:18;4.53;;;3.67;;
11171;SDS011;5642;50.830;12.082;2022-11-15T03:23:47;3.60;;;3.30;;
11171;SDS011;5642;50.830;12.082;2022-11-15T03:26:16;4.07;;;3.63;;
11171;SDS011;5642;50.830;12.082;2022-11-15T03:28:49;4.35;;;3.78;;
11171;SDS011;5642;50.830;12.082;2022-11-15T03:31:19;3.88;;;3.47;;
11171;SDS011;5642;50.830;12.082;2022-11-15T03:34:08;3.90;;;3.50;;
11171;SDS011;5642;50.830;12.082;2022-11-15T03:36:40;3.97;;;3.47;;
11171;SDS011;5642;50.830;12.082;2022-11-15T03:39:07;3.83;;;3.38;;
11171;SDS011;5642;50.830;12.082;2022-11-15T03:41:39;5.07;;;3.90;;
11171;SDS011;5642;50.830;12.082;2022-11-15T03:46:46;3.72;;;3.38;;
11171;SDS011;5642;50.830;12.082;2022-11-15T03:49:21;3.65;;;3.35;;
11171;SDS011;5642;50.830;12.082;2022-11-15T03:51:51;4.05;;;3.58;;
11171;SDS011;5642;50.830;12.082;2022-11-15T03:54:17;8.30;;;3.78;;
11171;SDS011;5642;50.830;12.082;2022-11-15T03:56:43;3.88;;;3.50;;
11171;SDS011;5642;50.830;12.082;2022-11-15T03:59:09;3.95;;;3.55;;
11171;SDS011;5642;50.830;12.082;2022-11-15T04:01:35;4.38;;;3.97;;
11171;SDS011;5642;50.830;12.082;2022-11-15T04:04:02;3.63;;;3.33;;
11171;SDS011;5642;50.830;12.082;2022-11-15T04:06:28;5.28;;;3.58;;
11171;SDS011;5642;50.830;12.082;2022-11-15T04:08:56;4.07;;;3.67;;
11171;SDS011;5642;50.830;12.082;2022-11-15T04:11:22;4.00;;;3.63;;
11171;SDS011;5642;50.830;12.082;2022-11-15T04:13:49;4.03;;;3.47;;
11171;SDS011;5642;50.830;12.082;2022-11-15T04:16:16;3.90;;;3.30;;
11171;SDS011;5642;50.830;12.082;2022-11-15T04:18:43;4.30;;;3.28;;
11171;SDS011;5642;50.830;12.082;2022-11-15T04:21:11;4.95;;;3.70;;
11171;SDS011;5642;50.830;12.082;2022-11-15T04:23:58;3.72;;;3.38;;
11171;SDS011;5642;50.830;12.082;2022-11-15T04:26:31;4.03;;;3.63;;
11171;SDS011;5642;50.830;12.082;2022-11-15T04:28:59;3.78;;;3.47;;
11171;SDS011;5642;50.830;12.082;2022-11-15T04:31:45;4.25;;;3.75;;
11171;SDS011;5642;50.830;12.082;2022-11-15T04:34:12;3.45;;;3.15;;
11171;SDS011;5642;50.830;12.082;2022-11-15T04:36:40;4.53;;;3.83;;
11171;SDS011;5642;50.830;12.082;2022-11-15T04:39:25;4.15;;;3.10;;
11171;SDS011;5642;50.830;12.082;2022-11-15T04:41:52;4.15;;;3.55;;
11171;SDS011;5642;50.830;12.082;2022-11-15T04:44:18;4.05;;;3.42;;
11171;SDS011;5642;50.830;12.082;2022-11-15T04:46:44;3.58;;;3.20;;
11171;SDS011;5642;50.830;12.082;2022-11-15T04:49:11;3.70;;;3.40;;
11171;SDS011;5642;50.830;12.082;2022-11-15T04:51:38;4.13;;;3.72;;
11171;SDS011;5642;50.830;12.082;2022-11-15T04:54:04;4.18;;;3.78;;
11171;SDS011;5642;50.830;12.082;2022-11-15T04:56:30;3.65;;;3.35;;
11171;SDS011;5642;50.830;12.082;2022-11-15T04:58:58;3.85;;;3.53;;
11171;SDS011;5642;50.830;12.082;2022-11-15T05:01:27;4.60;;;4.05;;
11171;SDS011;5642;50.830;12.082;2022-11-15T05:03:55;3.90;;;3.50;;
11171;SDS011;5642;50.830;12.082;2022-11-15T05:06:41;3.55;;;3.25;;
11171;SDS011;5642;50.830;12.082;2022-11-15T05:09:08;3.97;;;3.58;;
11171;SDS011;5642;50.830;12.082;2022-11-15T05:11:36;3.63;;;3.33;;
11171;SDS011;5642;50.830;12.082;2022-11-15T05:14:05;4.07;;;3.60;;
11171;SDS011;5642;50.830;12.082;2022-11-15T05:16:31;3.50;;;3.20;;
11171;SDS011;5642;50.830;12.082;2022-11-15T05:18:58;3.47;;;3.17;;
11171;SDS011;5642;50.830;12.082;2022-11-15T05:21:25;3.85;;;3.40;;
11171;SDS011;5642;50.830;12.082;2022-11-15T05:23:52;3.72;;;3.33;;
11171;SDS011;5642;50.830;12.082;2022-11-15T05:26:19;3.63;;;3.33;;
11171;SDS011;5642;50.830;12.082;2022-11-15T05:28:45;4.07;;;3.67;;
11171;SDS011;5642;50.830;12.082;2022-11-15T05:31:12;4.07;;;3.35;;
11171;SDS011;5642;50.830;12.082;2022-11-15T05:33:41;4.40;;;4.00;;
11171;SDS011;5642;50.830;12.082;2022-11-15T05:38:57;4.05;;;3.00;;
11171;SDS011;5642;50.830;12.082;2022-11-15T05:41:29;3.85;;;3.45;;
11171;SDS011;5642;50.830;12.082;2022-11-15T05:43:59;3.65;;;3.17;;
11171;SDS011;5642;50.830;12.082;2022-11-15T05:46:27;3.42;;;3.13;;
11171;SDS011;5642;50.830;12.082;2022-11-15T05:48:54;3.60;;;3.17;;
11171;SDS011;5642;50.830;12.082;2022-11-15T05:51:21;4.43;;;3.80;;
11171;SDS011;5642;50.830;12.082;2022-11-15T05:53:49;3.60;;;3.30;;
11171;SDS011;5642;50.830;12.082;2022-11-15T05:56:16;3.70;;;3.40;;
11171;SDS011;5642;50.830;12.082;2022-11-15T05:58:42;4.47;;;3.30;;
11171;SDS011;5642;50.830;12.082;2022-11-15T06:01:09;3.72;;;3.42;;
11171;SDS011;5642;50.830;12.082;2022-11-15T06:03:35;3.72;;;3.42;;
11171;SDS011;5642;50.830;12.082;2022-11-15T06:06:01;3.40;;;3.03;;
11171;SDS011;5642;50.830;12.082;2022-11-15T06:08:27;3.05;;;2.83;;
11171;SDS011;5642;50.830;12.082;2022-11-15T06:10:53;3.10;;;2.83;;
11171;SDS011;5642;50.830;12.082;2022-11-15T06:13:20;3.63;;;3.33;;
11171;SDS011;5642;50.830;12.082;2022-11-15T06:15:47;4.07;;;3.05;;
11171;SDS011;5642;50.830;12.082;2022-11-15T06:18:13;3.47;;;3.17;;
11171;SDS011;5642;50.830;12.082;2022-11-15T06:20:40;4.88;;;3.22;;
11171;SDS011;5642;50.830;12.082;2022-11-15T06:23:06;3.88;;;3.40;;
11171;SDS011;5642;50.830;12.082;2022-11-15T06:25:31;4.75;;;4.25;;
11171;SDS011;5642;50.830;12.082;2022-11-15T06:27:58;4.85;;;3.92;;
11171;SDS011;5642;50.830;12.082;2022-11-15T06:30:25;4.40;;;3.92;;
11171;SDS011;5642;50.830;12.082;2022-11-15T06:32:58;4.90;;;4.00;;
11171;SDS011;5642;50.830;12.082;2022-11-15T06:35:26;3.58;;;3.28;;
11171;SDS011;5642;50.830;12.082;2022-11-15T06:37:53;3.55;;;3.25;;
11171;SDS011;5642;50.830;12.082;2022-11-15T06:40:19;3.63;;;3.33;;
11171;SDS011;5642;50.830;12.082;2022-11-15T06:42:45;5.20;;;3.17;;
11171;SDS011;5642;50.830;12.082;2022-11-15T06:45:11;5.25;;;3.25;;
11171;SDS011;5642;50.830;12.082;2022-11-15T06:47:46;3.60;;;3.30;;
11171;SDS011;5642;50.830;12.082;2022-11-15T06:50:12;4.43;;;3.75;;
11171;SDS011;5642;50.830;12.082;2022-11-15T06:52:39;3.75;;;2.85;;
11171;SDS011;5642;50.830;12.082;2022-11-15T06:55:06;3.50;;;3.20;;
11171;SDS011;5642;50.830;12.082;2022-11-15T06:57:32;3.33;;;3.03;;
11171;SDS011;5642;50.830;12.082;2022-11-15T06:59:58;3.50;;;3.20;;
11171;SDS011;5642;50.830;12.082;2022-11-15T07:02:25;3.80;;;3.50;;
11171;SDS011;5642;50.830;12.082;2022-11-15T07:04:51;3.60;;;3.30;;
11171;SDS011;5642;50.830;12.082;2022-11-15T07:07:18;3.83;;;3.50;;
11171;SDS011;5642;50.830;12.082;2022-11-15T07:09:45;4.00;;;3.60;;
11171;SDS011;5642;50.830;12.082;2022-11-15T07:12:11;5.15;;;3.20;;
11171;SDS011;5642;50.830;12.082;2022-11-15T07:14:37;3.50;;;3.20;;
11171;SDS011;5642;50.830;12.082;2022-11-15T07:17:04;4.40;;;3.50;;
11171;SDS011;5642;50.830;12.082;2022-11-15T07:19:31;3.65;;;3.22;;
11171;SDS011;5642;50.830;12.082;2022-11-15T07:25:47;3.95;;;3.17;;
11171;SDS011;5642;50.830;12.082;2022-11-15T07:28:13;4.45;;;3.17;;
11171;SDS011;5642;50.830;12.082;2022-11-15T07:30:40;3.95;;;3.50;;
11171;SDS011;5642;50.830;12.082;2022-11-15T07:33:07;3.50;;;2.97;;
11171;SDS011;5642;50.830;12.082;2022-11-15T07:35:33;4.57;;;3.10;;
11171;SDS011;5642;50.830;12.082;2022-11-15T07:38:00;3.67;;;3.33;;
11171;SDS011;5642;50.830;12.082;2022-11-15T07:40:28;3.20;;;2.92;;
11171;SDS011;5642;50.830;12.082;2022-11-15T07:42:59;3.47;;;3.17;;
11171;SDS011;5642;50.830;12.082;2022-11-15T07:45:39;3.20;;;2.85;;
11171;SDS011;5642;50.830;12.082;2022-11-15T07:48:08;3.67;;;3.17;;
11171;SDS011;5642;50.830;12.082;2022-11-15T07:50:35;3.20;;;2.90;;
11171;SDS011;5642;50.830;12.082;2022-11-15T07:53:01;6.35;;;3.00;;
11171;SDS011;5642;50.830;12.082;2022-11-15T07:55:27;3.60;;;3.30;;
11171;SDS011;5642;50.830;12.082;2022-11-15T07:58:04;3.50;;;3.05;;
11171;SDS011;5642;50.830;12.082;2022-11-15T08:00:33;3.63;;;3.10;;
11171;SDS011;5642;50.830;12.082;2022-11-15T08:03:02;3.13;;;2.83;;
11171;SDS011;5642;50.830;12.082;2022-11-15T08:05:30;3.25;;;2.95;;
11171;SDS011;5642;50.830;12.082;2022-11-15T08:07:57;3.28;;;2.97;;
11171;SDS011;5642;50.830;12.082;2022-11-15T08:10:25;3.03;;;2.83;;
11171;SDS011;5642;50.830;12.082;2022-11-15T08:13:02;3.58;;;3.28;;
11171;SDS011;5642;50.830;12.082;2022-11-15T08:15:31;2.65;;;2.45;;
11171;SDS011;5642;50.830;12.082;2022-11-15T08:18:03;9.70;;;2.88;;
11171;SDS011;5642;50.830;12.082;2022-11-15T08:20:33;3.08;;;2.78;;
11171;SDS011;5642;50.830;12.082;2022-11-15T08:23:00;3.22;;;2.92;;
11171;SDS011;5642;50.830;12.082;2022-11-15T08:25:30;3.47;;;3.03;;
11171;SDS011;5642;50.830;12.082;2022-11-15T08:28:01;2.70;;;2.50;;
11171;SDS011;5642;50.830;12.082;2022-11-15T08:30:35;2.78;;;2.58;;
11171;SDS011;5642;50.830;12.082;2022-11-15T08:33:04;2.88;;;2.67;;
11171;SDS011;5642;50.830;12.082;2022-11-15T08:35:32;2.80;;;2.55;;
11171;SDS011;5642;50.830;12.082;2022-11-15T08:37:58;2.45;;;2.25;;
11171;SDS011;5642;50.830;12.082;2022-11-15T08:40:25;2.80;;;2.50;;
11171;SDS011;5642;50.830;12.082;2022-11-15T08:42:53;3.10;;;2.80;;
11171;SDS011;5642;50.830;12.082;2022-11-15T08:45:21;2.55;;;2.35;;
11171;SDS011;5642;50.830;12.082;2022-11-15T08:47:47;2.40;;;2.20;;
11171;SDS011;5642;50.830;12.082;2022-11-15T08:50:14;2.67;;;2.47;;
11171;SDS011;5642;50.830;12.082;2022-11-15T08:52:41;2.85;;;2.55;;
11171;SDS011;5642;50.830;12.082;2022-11-15T08:55:09;2.83;;;2.63;;
11171;SDS011;5642;50.830;12.082;2022-11-15T08:57:35;2.53;;;2.33;;
11171;SDS011;5642;50.830;12.082;2022-11-15T09:00:02;2.47;;;2.28;;
11171;SDS011;5642;50.830;12.082;2022-11-15T09:02:30;2.63;;;2.42;;
11171;SDS011;5642;50.830;12.082;2022-11-15T09:04:57;2.40;;;2.20;;
11171;SDS011;5642;50.830;12.082;2022-11-15T09:07:23;3.28;;;2.45;;
11171;SDS011;5642;50.830;12.082;2022-11-15T09:09:50;2.63;;;2.20;;
11171;SDS011;5642;50.830;12.082;2022-11-15T09:12:16;3.83;;;3.00;;
11171;SDS011;5642;50.830;12.082;2022-11-15T09:14:43;2.63;;;2.40;;
11171;SDS011;5642;50.830;12.082;2022-11-15T09:17:10;2.70;;;2.50;;
11171;SDS011;5642;50.830;12.082;2022-11-15T09:19:39;2.53;;;2.33;;
11171;SDS011;5642;50.830;12.082;2022-11-15T09:22:06;2.40;;;2.20;;
11171;SDS011;5642;50.830;12.082;2022-11-15T09:24:34;2.72;;;2.20;;
11171;SDS011;5642;50.830;12.082;2022-11-15T09:27:02;2.70;;;2.50;;
11171;SDS011;5642;50.830;12.082;2022-11-15T09:29:30;3.15;;;2.72;;
11171;SDS011;5642;50.830;12.082;2022-11-15T09:31:57;2.80;;;2.50;;
11171;SDS011;5642;50.830;12.082;2022-11-15T09:34:25;2.78;;;2.58;;
11171;SDS011;5642;50.830;12.082;2022-11-15T09:36:52;2.60;;;2.40;;
11171;SDS011;5642;50.830;12.082;2022-11-15T09:39:19;2.30;;;2.10;;
11171;SDS011;5642;50.830;12.082;2022-11-15T09:41:59;3.35;;;1.90;;
11171;SDS011;5642;50.830;12.082;2022-11-15T09:44:46;2.28;;;2.08;;
11171;SDS011;5642;50.830;12.082;2022-11-15T09:50:48;2.08;;;1.83;;
11171;SDS011;5642;50.830;12.082;2022-11-15T09:53:32;2.13;;;1.92;;
11171;SDS011;5642;50.830;12.082;2022-11-15T09:56:10;1.83;;;1.73;;
11171;SDS011;5642;50.830;12.082;2022-11-15T10:01:39;1.70;;;1.60;;
11171;SDS011;5642;50.830;12.082;2022-11-15T10:04:07;1.90;;;1.80;;
11171;SDS011;5642;50.830;12.082;2022-11-15T10:06:34;2.00;;;1.90;;
11171;SDS011;5642;50.830;12.082;2022-11-15T10:09:09;1.65;;;1.55;;
11171;SDS011;5642;50.830;12.082;2022-11-15T10:11:41;1.88;;;1.77;;
11171;SDS011;5642;50.830;12.082;2022-11-15T10:14:09;1.80;;;1.70;;
11171;SDS011;5642;50.830;12.082;2022-11-15T10:16:50;1.98;;;1.80;;
11171;SDS011;5642;50.830;12.082;2022-11-15T10:22:49;1.17;;;1.17;;
11171;SDS011;5642;50.830;12.082;2022-11-15T10:25:22;1.40;;;1.30;;
11171;SDS011;5642;50.830;12.082;2022-11-15T10:30:45;1.45;;;1.35;;
11171;SDS011;5642;50.830;12.082;2022-11-15T10:44:08;1.02;;;1.02;;
11171;SDS011;5642;50.830;12.082;2022-11-15T10:46:39;1.20;;;1.10;;
11171;SDS011;5642;50.830;12.082;2022-11-15T10:51:51;1.27;;;1.17;;
11171;SDS011;5642;50.830;12.082;2022-11-15T10:54:36;1.20;;;1.20;;
11171;SDS011;5642;50.830;12.082;2022-11-15T10:57:15;1.27;;;1.20;;
11171;SDS011;5642;50.830;12.082;2022-11-15T10:59:45;2.35;;;1.17;;
11171;SDS011;5642;50.830;12.082;2022-11-15T11:04:50;0.95;;;0.95;;
11171;SDS011;5642;50.830;12.082;2022-11-15T11:07:21;1.00;;;1.00;;
11171;SDS011;5642;50.830;12.082;2022-11-15T11:10:17;1.23;;;1.20;;
11171;SDS011;5642;50.830;12.082;2022-11-15T11:12:46;1.15;;;1.10;;
11171;SDS011;5642;50.830;12.082;2022-11-15T11:15:13;1.40;;;1.20;;
11171;SDS011;5642;50.830;12.082;2022-11-15T11:20:58;1.15;;;1.13;;
11171;SDS011;5642;50.830;12.082;2022-11-15T11:31:55;1.52;;;1.20;;
11171;SDS011;5642;50.830;12.082;2022-11-15T11:37:35;1.30;;;1.20;;
11171;SDS011;5642;50.830;12.082;2022-11-15T11:46:07;1.35;;;1.25;;
11171;SDS011;5642;50.830;12.082;2022-11-15T11:48:44;1.40;;;1.02;;
11171;SDS011;5642;50.830;12.082;2022-11-15T12:00:27;1.50;;;1.40;;
11171;SDS011;5642;50.830;12.082;2022-11-15T12:03:04;1.17;;;1.17;;
11171;SDS011;5642;50.830;12.082;2022-11-15T12:05:35;1.58;;;1.48;;
11171;SDS011;5642;50.830;12.082;2022-11-15T12:10:57;1.20;;;1.10;;
11171;SDS011;5642;50.830;12.082;2022-11-15T12:13:47;2.35;;;1.40;;
11171;SDS011;5642;50.830;12.082;2022-11-15T12:16:17;1.27;;;1.20;;
11171;SDS011;5642;50.830;12.082;2022-11-15T12:18:50;1.27;;;1.20;;
11171;SDS011;5642;50.830;12.082;2022-11-15T12:26:52;2.03;;;1.02;;
11171;SDS011;5642;50.830;12.082;2022-11-15T12:32:11;1.58;;;1.20;;
11171;SDS011;5642;50.830;12.082;2022-11-15T12:34:49;1.30;;;1.20;;
11171;SDS011;5642;50.830;12.082;2022-11-15T12:42:56;1.13;;;1.02;;
11171;SDS011;5642;50.830;12.082;2022-11-15T12:47:56;1.40;;;1.30;;
11171;SDS011;5642;50.830;12.082;2022-11-15T12:50:57;1.60;;;1.13;;
11171;SDS011;5642;50.830;12.082;2022-11-15T12:53:26;1.38;;;1.27;;
11171;SDS011;5642;50.830;12.082;2022-11-15T12:58:41;1.30;;;1.20;;
11171;SDS011;5642;50.830;12.082;2022-11-15T13:06:55;1.35;;;1.20;;
11171;SDS011;5642;50.830;12.082;2022-11-15T13:18:18;1.23;;;1.13;;
11171;SDS011;5642;50.830;12.082;2022-11-15T13:20:53;1.20;;;1.10;;
11171;SDS011;5642;50.830;12.082;2022-11-15T13:23:20;1.35;;;1.20;;
11171;SDS011;5642;50.830;12.082;2022-11-15T13:26:08;1.45;;;1.35;;
11171;SDS011;5642;50.830;12.082;2022-11-15T13:28:52;0.90;;;0.90;;
11171;SDS011;5642;50.830;12.082;2022-11-15T13:34:00;1.00;;;1.00;;
11171;SDS011;5642;50.830;12.082;2022-11-15T13:36:32;1.10;;;1.10;;
11171;SDS011;5642;50.830;12.082;2022-11-15T13:39:05;1.40;;;1.30;;
11171;SDS011;5642;50.830;12.082;2022-11-15T13:41:49;1.17;;;1.10;;
11171;SDS011;5642;50.830;12.082;2022-11-15T13:47:25;1.38;;;1.27;;
11171;SDS011;5642;50.830;12.082;2022-11-15T13:49:58;1.35;;;1.30;;
11171;SDS011;5642;50.830;12.082;2022-11-15T13:52:28;1.58;;;1.48;;
11171;SDS011;5642;50.830;12.082;2022-11-15T13:55:04;1.42;;;1.33;;
11171;SDS011;5642;50.830;12.082;2022-11-15T13:57:37;2.42;;;1.25;;
11171;SDS011;5642;50.830;12.082;2022-11-15T14:02:53;1.25;;;1.20;;
11171;SDS011;5642;50.830;12.082;2022-11-15T14:05:22;1.40;;;1.30;;
11171;SDS011;5642;50.830;12.082;2022-11-15T14:07:56;1.50;;;1.40;;
11171;SDS011;5642;50.830;12.082;2022-11-15T14:10:35;1.02;;;1.02;;
11171;SDS011;5642;50.830;12.082;2022-11-15T14:13:10;1.30;;;1.20;;
11171;SDS011;5642;50.830;12.082;2022-11-15T14:15:54;1.35;;;1.25;;
11171;SDS011;5642;50.830;12.082;2022-11-15T14:21:16;1.30;;;1.20;;
11171;SDS011;5642;50.830;12.082;2022-11-15T14:23:43;1.63;;;1.20;;
11171;SDS011;5642;50.830;12.082;2022-11-15T14:26:32;1.30;;;1.20;;
11171;SDS011;5642;50.830;12.082;2022-11-15T14:31:50;1.25;;;1.17;;
11171;SDS011;5642;50.830;12.082;2022-11-15T14:34:17;1.10;;;1.10;;
11171;SDS011;5642;50.830;12.082;2022-11-15T14:36:43;1.30;;;1.20;;
11171;SDS011;5642;50.830;12.082;2022-11-15T14:39:10;1.23;;;1.20;;
11171;SDS011;5642;50.830;12.082;2022-11-15T14:41:36;1.52;;;1.30;;
11171;SDS011;5642;50.830;12.082;2022-11-15T14:44:06;1.50;;;1.40;;
11171;SDS011;5642;50.830;12.082;2022-11-15T14:46:36;1.30;;;1.20;;
11171;SDS011;5642;50.830;12.082;2022-11-15T14:49:04;1.10;;;1.10;;
11171;SDS011;5642;50.830;12.082;2022-11-15T14:51:30;2.63;;;1.50;;
11171;SDS011;5642;50.830;12.082;2022-11-15T14:53:58;1.40;;;1.30;;
11171;SDS011;5642;50.830;12.082;2022-11-15T14:56:25;1.30;;;1.20;;
11171;SDS011;5642;50.830;12.082;2022-11-15T14:58:51;1.20;;;1.10;;
11171;SDS011;5642;50.830;12.082;2022-11-15T15:01:19;1.42;;;1.33;;
11171;SDS011;5642;50.830;12.082;2022-11-15T15:03:47;1.40;;;1.20;;
11171;SDS011;5642;50.830;12.082;2022-11-15T15:06:13;1.17;;;1.08;;
11171;SDS011;5642;50.830;12.082;2022-11-15T15:08:40;1.30;;;1.20;;
11171;SDS011;5642;50.830;12.082;2022-11-15T15:11:08;1.65;;;1.30;;
11171;SDS011;5642;50.830;12.082;2022-11-15T15:13:41;1.30;;;1.20;;
11171;SDS011;5642;50.830;12.082;2022-11-15T15:16:07;1.50;;;1.40;;
11171;SDS011;5642;50.830;12.082;2022-11-15T15:18:34;1.40;;;1.30;;
11171;SDS011;5642;50.830;12.082;2022-11-15T15:21:01;1.50;;;1.40;;
11171;SDS011;5642;50.830;12.082;2022-11-15T15:23:32;1.60;;;1.50;;
11171;SDS011;5642;50.830;12.082;2022-11-15T15:26:02;1.50;;;1.40;;
11171;SDS011;5642;50.830;12.082;2022-11-15T15:28:28;1.70;;;1.35;;
11171;SDS011;5642;50.830;12.082;2022-11-15T15:30:55;1.40;;;1.30;;
11171;SDS011;5642;50.830;12.082;2022-11-15T15:33:22;1.50;;;1.40;;
11171;SDS011;5642;50.830;12.082;2022-11-15T15:35:49;1.50;;;1.40;;
11171;SDS011;5642;50.830;12.082;2022-11-15T15:38:15;1.58;;;1.48;;
11171;SDS011;5642;50.830;12.082;2022-11-15T15:40:41;1.70;;;1.60;;
11171;SDS011;5642;50.830;12.082;2022-11-15T15:43:07;2.08;;;1.88;;
11171;SDS011;5642;50.830;12.082;2022-11-15T15:45:36;2.00;;;1.90;;
11171;SDS011;5642;50.830;12.082;2022-11-15T15:48:03;2.05;;;1.88;;
11171;SDS011;5642;50.830;12.082;2022-11-15T15:50:31;2.03;;;1.90;;
11171;SDS011;5642;50.830;12.082;2022-11-15T15:52:59;3.00;;;2.22;;
11171;SDS011;5642;50.830;12.082;2022-11-15T15:55:29;3.17;;;2.13;;
11171;SDS011;5642;50.830;12.082;2022-11-15T15:57:59;2.38;;;2.17;;
11171;SDS011;5642;50.830;12.082;2022-11-15T16:00:28;3.80;;;2.85;;
11171;SDS011;5642;50.830;12.082;2022-11-15T16:02:56;2.35;;;2.15;;
11171;SDS011;5642;50.830;12.082;2022-11-15T16:05:22;2.45;;;2.25;;
11171;SDS011;5642;50.830;12.082;2022-11-15T16:07:49;2.75;;;2.55;;
11171;SDS011;5642;50.830;12.082;2022-11-15T16:10:26;3.45;;;2.72;;
11171;SDS011;5642;50.830;12.082;2022-11-15T16:12:55;4.10;;;3.53;;
11171;SDS011;5642;50.830;12.082;2022-11-15T16:15:24;5.45;;;4.22;;
11171;SDS011;5642;50.830;12.082;2022-11-15T16:17:59;4.78;;;4.18;;
11171;SDS011;5642;50.830;12.082;2022-11-15T16:23:13;5.18;;;4.60;;
11171;SDS011;5642;50.830;12.082;2022-11-15T16:25:44;6.40;;;5.07;;
11171;SDS011;5642;50.830;12.082;2022-11-15T16:28:23;9.02;;;5.78;;
11171;SDS011;5642;50.830;12.082;2022-11-15T16:31:01;6.68;;;5.68;;
11171;SDS011;5642;50.830;12.082;2022-11-15T16:33:32;7.93;;;5.78;;
11171;SDS011;5642;50.830;12.082;2022-11-15T16:36:02;7.25;;;5.93;;
11171;SDS011;5642;50.830;12.082;2022-11-15T16:38:31;5.93;;;5.20;;
11171;SDS011;5642;50.830;12.082;2022-11-15T16:40:59;6.35;;;5.05;;
11171;SDS011;5642;50.830;12.082;2022-11-15T16:43:26;6.13;;;4.53;;
11171;SDS011;5642;50.830;12.082;2022-11-15T16:45:53;4.88;;;4.00;;
11171;SDS011;5642;50.830;12.082;2022-11-15T16:48:26;5.57;;;3.97;;
11171;SDS011;5642;50.830;12.082;2022-11-15T16:50:57;4.45;;;4.05;;
11171;SDS011;5642;50.830;12.082;2022-11-15T16:53:26;6.05;;;5.43;;
11171;SDS011;5642;50.830;12.082;2022-11-15T16:55:54;7.72;;;6.75;;
11171;SDS011;5642;50.830;12.082;2022-11-15T16:58:20;6.07;;;5.47;;
11171;SDS011;5642;50.830;12.082;2022-11-15T17:00:56;5.70;;;5.10;;
11171;SDS011;5642;50.830;12.082;2022-11-15T17:03:24;6.13;;;5.53;;
11171;SDS011;5642;50.830;12.082;2022-11-15T17:05:50;6.80;;;6.00;;
11171;SDS011;5642;50.830;12.082;2022-11-15T17:08:18;6.55;;;5.80;;
11171;SDS011;5642;50.830;12.082;2022-11-15T17:10:51;6.55;;;5.95;;
11171;SDS011;5642;50.830;12.082;2022-11-15T17:13:20;7.63;;;6.72;;
11171;SDS011;5642;50.830;12.082;2022-11-15T17:15:48;6.50;;;5.80;;
11171;SDS011;5642;50.830;12.082;2022-11-15T17:18:15;5.72;;;5.18;;
11171;SDS011;5642;50.830;12.082;2022-11-15T17:20:42;12.35;;;4.82;;
11171;SDS011;5642;50.830;12.082;2022-11-15T17:23:13;4.70;;;4.20;;
11171;SDS011;5642;50.830;12.082;2022-11-15T17:25:41;5.53;;;5.03;;
11171;SDS011;5642;50.830;12.082;2022-11-15T17:28:10;5.43;;;4.93;;
11171;SDS011;5642;50.830;12.082;2022-11-15T17:30:39;9.40;;;7.47;;
11171;SDS011;5642;50.830;12.082;2022-11-15T17:33:07;8.05;;;7.10;;
11171;SDS011;5642;50.830;12.082;2022-11-15T17:35:33;8.13;;;6.63;;